Accueil
METAR-TAF:

METAR-TAF

Aéroports :

Cranfield, Angleterre

latitude: 52-04N, longitude: 000-37W, altitude: 111 m

Observation

Le bulletin a été fait il y a 9 heures et 10 minutes, à 16:50 UTC
Vent 17 kt de ouest/sud-ouest
Température 19°C
Humidité 73%
Pression 1015 hPa
Visibilité 10 km ou plus
Quelques nuages à une hauteur de 2500 ft
Nuages fragmentés à une hauteur de 4100 ft

METAR: EGTC 231650Z 24017KT 9999 FEW025 BKN041 19/14 Q1015

Heure: 03:00 (02:00 UTC)

Prévision

Le bulletin a été fait il y a 11 heures et 57 minutes, à 14:03 UTC
Prévision valable du 23 à 15 UTC au 23 à 18 UTC
Vent 15 kt de ouest/sud-ouest
Visibilité 10 km ou plus
Nuages épars à une hauteur de 3000 ft
Probabilité 30% :
Temporairement
du 23 à 15 UTC au 23 à 18 UTC
Vent 18 kt de ouest/sud-ouest avec des rafales jusqu'à 28 kt

TAF: EGTC 231403Z 2315/2318 24015KT 9999 SCT030 PROB30 TEMPO 2315/2318 25018G28KT

Observations et prévisions météorologiques de plus de 4000 aéroports (messages METAR et TAF).

Les stations disponibles sont représentées par des disques jaunes et rouges sur la carte.

Passer la souris dessus pour voir le nom de la station.

Cliquer dessus pour voir les observations et prévisions météorologiques.

Pour changer de carte: cliquez sur les boutons verts avec une croix noire pour zoomer, sur le bouton vert avec un tiret pour effectuer un zoom arrière, ou sur les flèches vertes pour les cartes adjacentes.


METAR-TAF: